createdAt,value
2023-03-26T00:01:47.223Z,58.99
2023-03-26T00:06:49.168Z,59.06
2023-03-26T00:11:50.910Z,59.12
2023-03-26T00:16:53.773Z,59.44
2023-03-26T00:21:57.865Z,59.08
2023-03-26T00:26:59.815Z,59.26
2023-03-26T00:32:01.859Z,59.56
2023-03-26T00:37:03.596Z,59.79
2023-03-26T00:42:07.300Z,59.57
2023-03-26T00:47:08.994Z,59.76
2023-03-26T00:52:13.469Z,59.65
2023-03-26T00:57:22.744Z,59.65
2023-03-26T01:02:33.424Z,59.50
2023-03-26T01:07:35.315Z,59.71
2023-03-26T01:12:37.058Z,59.74
2023-03-26T01:17:38.964Z,59.75
2023-03-26T01:22:49.451Z,59.99
2023-03-26T01:27:54.730Z,60.05
2023-03-26T01:33:14.371Z,60.15
2023-03-26T01:38:46.840Z,60.42
2023-03-26T01:43:58.451Z,60.24
2023-03-26T01:49:00.109Z,60.61
2023-03-26T01:54:05.337Z,60.61
2023-03-26T01:59:16.848Z,61.26
2023-03-26T02:04:26.619Z,61.17
2023-03-26T02:09:32.215Z,61.30
2023-03-26T02:14:34.385Z,61.17
2023-03-26T02:19:36.839Z,61.17
2023-03-26T02:24:38.815Z,60.81
2023-03-26T02:29:41.167Z,60.90
2023-03-26T02:34:43.245Z,60.63
2023-03-26T02:39:45.176Z,60.73
2023-03-26T02:44:46.845Z,60.51
2023-03-26T02:49:48.513Z,60.44
2023-03-26T02:54:50.336Z,60.55
2023-03-26T02:59:52.938Z,60.27
2023-03-26T03:05:01.437Z,60.15
2023-03-26T03:10:04.352Z,60.22
2023-03-26T03:15:06.394Z,60.23
2023-03-26T03:20:14.345Z,60.35
2023-03-26T03:25:17.620Z,60.50
2023-03-26T03:30:19.266Z,60.41
2023-03-26T03:35:21.285Z,60.27
2023-03-26T03:40:22.953Z,60.06
2023-03-26T03:45:24.579Z,59.67
2023-03-26T03:50:26.985Z,59.59
2023-03-26T03:55:28.690Z,59.75
2023-03-26T04:00:30.746Z,59.65
2023-03-26T04:05:33.216Z,59.96
2023-03-26T04:10:34.834Z,60.44
2023-03-26T04:15:36.620Z,60.75
2023-03-26T04:20:42.006Z,61.00
2023-03-26T04:25:48.570Z,61.03
2023-03-26T04:30:53.802Z,61.40
2023-03-26T04:35:57.004Z,61.66
2023-03-26T04:41:01.185Z,62.20
2023-03-26T04:46:04.651Z,62.36
2023-03-26T04:51:10.222Z,62.40
2023-03-26T04:56:37.090Z,62.60
2023-03-26T05:01:40.294Z,62.51
2023-03-26T05:06:42.166Z,62.61
2023-03-26T05:11:43.811Z,62.84
2023-03-26T05:16:47.878Z,63.08
2023-03-26T05:21:49.459Z,63.40
2023-03-26T05:26:51.767Z,63.23
2023-03-26T05:31:53.456Z,62.94
2023-03-26T05:36:55.068Z,62.92
2023-03-26T05:41:56.681Z,63.33
2023-03-26T05:46:58.312Z,63.11
2023-03-26T05:51:59.950Z,63.80
2023-03-26T05:57:01.613Z,64.06
2023-03-26T06:02:03.479Z,65.08
2023-03-26T06:07:05.105Z,65.80
2023-03-26T06:12:08.279Z,65.67
2023-03-26T06:17:10.715Z,65.76
2023-03-26T06:22:12.523Z,66.11
2023-03-26T06:27:14.199Z,65.51
2023-03-26T06:32:20.068Z,65.01
2023-03-26T06:37:22.357Z,65.01
2023-03-26T06:42:31.970Z,65.17
2023-03-26T06:47:45.771Z,65.18
2023-03-26T06:52:47.446Z,65.52
2023-03-26T06:57:50.950Z,65.63
2023-03-26T07:02:52.744Z,65.32
2023-03-26T07:07:54.575Z,65.05
2023-03-26T07:12:56.335Z,64.92
2023-03-26T07:17:58.070Z,64.86
2023-03-26T07:23:00.047Z,65.08
2023-03-26T07:28:22.198Z,65.69
2023-03-26T07:33:34.114Z,65.43
2023-03-26T07:39:09.580Z,65.66
2023-03-26T07:45:02.363Z,65.60
2023-03-26T07:50:07.730Z,65.02
2023-03-26T07:55:14.475Z,64.63
2023-03-26T08:00:29.199Z,64.03
2023-03-26T08:05:35.182Z,64.24
2023-03-26T08:10:43.224Z,64.23
2023-03-26T08:16:08.242Z,64.78
2023-03-26T08:21:31.895Z,64.71
2023-03-26T08:26:45.473Z,64.67
2023-03-26T08:31:49.497Z,64.83
2023-03-26T08:36:51.613Z,64.52
2023-03-26T08:42:21.111Z,64.84
2023-03-26T08:47:47.236Z,64.63
2023-03-26T08:53:26.192Z,64.45
2023-03-26T08:58:36.662Z,64.37
2023-03-26T09:03:41.465Z,64.06
2023-03-26T09:09:07.457Z,64.37
2023-03-26T09:14:39.468Z,64.10
2023-03-26T09:19:56.265Z,64.15
2023-03-26T09:25:23.956Z,63.88
2023-03-26T09:30:37.305Z,63.87
2023-03-26T09:35:54.259Z,63.43
2023-03-26T09:41:08.121Z,61.91
2023-03-26T09:46:28.707Z,60.29
2023-03-26T09:51:49.431Z,58.61
2023-03-26T09:56:57.818Z,60.35
2023-03-26T10:02:46.382Z,59.55
2023-03-26T10:08:07.237Z,60.55
2023-03-26T10:13:23.741Z,61.06
2023-03-26T10:18:33.916Z,59.13
2023-03-26T10:23:45.266Z,59.68
2023-03-26T10:28:55.717Z,59.26
2023-03-26T10:34:06.073Z,59.88
2023-03-26T10:39:36.851Z,60.96
2023-03-26T10:44:49.424Z,60.02
2023-03-26T10:50:23.077Z,60.29
2023-03-26T10:55:32.961Z,60.08
2023-03-26T11:00:43.430Z,59.68
2023-03-26T11:05:57.072Z,58.50
2023-03-26T11:11:11.146Z,59.03
2023-03-26T11:16:19.990Z,59.36
2023-03-26T11:21:38.962Z,60.42
2023-03-26T11:26:49.688Z,59.91
2023-03-26T11:32:03.667Z,58.47
2023-03-26T11:37:16.138Z,58.87
2023-03-26T11:42:21.813Z,59.59
2023-03-26T11:47:35.328Z,60.75
2023-03-26T11:52:37.469Z,61.01
2023-03-26T11:57:45.587Z,61.31
2023-03-26T12:02:48.815Z,59.97
2023-03-26T12:07:54.791Z,58.75
2023-03-26T12:12:59.631Z,58.69
2023-03-26T12:18:23.933Z,58.03
2023-03-26T12:23:57.904Z,57.56
2023-03-26T12:29:06.906Z,57.05
2023-03-26T12:34:18.455Z,56.21
2023-03-26T12:40:09.489Z,56.45
2023-03-26T12:49:59.461Z,54.63
2023-03-26T12:55:13.267Z,53.58
2023-03-26T13:00:21.450Z,52.55
2023-03-26T13:05:41.726Z,52.64
2023-03-26T13:11:21.032Z,50.84
2023-03-26T13:16:36.381Z,50.59
2023-03-26T13:21:40.810Z,51.67
2023-03-26T13:26:56.459Z,50.46
2023-03-26T13:32:07.202Z,50.54
2023-03-26T13:37:17.321Z,49.78
2023-03-26T13:42:37.665Z,48.88
2023-03-26T13:47:46.003Z,50.70
2023-03-26T13:53:12.478Z,50.97
2023-03-26T13:58:24.165Z,50.44
2023-03-26T14:03:51.555Z,50.09
2023-03-26T14:09:06.871Z,52.09
2023-03-26T14:14:17.804Z,53.95
2023-03-26T14:19:54.681Z,55.00
2023-03-26T14:25:20.375Z,54.90
2023-03-26T14:30:51.343Z,56.65
2023-03-26T14:36:18.002Z,59.86
2023-03-26T14:41:33.666Z,60.55
2023-03-26T14:46:56.903Z,60.93
2023-03-26T14:52:07.352Z,61.50
2023-03-26T14:57:09.879Z,61.56
2023-03-26T15:02:32.848Z,64.37
2023-03-26T15:07:52.700Z,62.80
2023-03-26T15:13:30.716Z,63.16
2023-03-26T15:18:57.222Z,63.16
2023-03-26T15:24:26.617Z,63.56
2023-03-26T15:29:55.894Z,63.37
2023-03-26T15:35:24.134Z,63.08
2023-03-26T15:40:25.700Z,62.55
2023-03-26T15:45:40.566Z,62.23
2023-03-26T15:51:46.551Z,62.76
2023-03-26T15:56:55.186Z,62.05
2023-03-26T16:02:44.640Z,62.10
2023-03-26T16:08:14.858Z,62.36
2023-03-26T16:13:25.321Z,62.37
2023-03-26T16:18:49.960Z,63.58
2023-03-26T16:24:12.625Z,63.49
2023-03-26T16:29:14.478Z,63.46
2023-03-26T16:34:26.260Z,64.42
2023-03-26T16:40:20.906Z,64.48
2023-03-26T16:45:37.110Z,64.67
2023-03-26T16:51:04.400Z,64.39
2023-03-26T16:56:15.891Z,64.46
2023-03-26T17:01:27.615Z,64.66
2023-03-26T17:07:09.046Z,64.54
2023-03-26T17:13:01.183Z,65.23
2023-03-26T17:18:36.910Z,65.57
2023-03-26T17:24:19.316Z,65.47
2023-03-26T17:30:04.000Z,65.69
2023-03-26T17:35:09.319Z,65.65
2023-03-26T17:40:46.571Z,66.66
2023-03-26T17:46:03.264Z,66.26
2023-03-26T17:51:30.860Z,66.44
2023-03-26T17:56:37.831Z,66.51
2023-03-26T18:01:42.240Z,66.46
2023-03-26T18:07:19.564Z,67.06
2023-03-26T18:12:45.337Z,66.86
2023-03-26T18:17:47.941Z,66.52
2023-03-26T18:22:51.691Z,66.12
2023-03-26T18:27:53.502Z,66.33
2023-03-26T18:33:13.210Z,65.92
2023-03-26T18:38:36.900Z,66.09
2023-03-26T18:43:44.215Z,65.69
2023-03-26T18:48:47.026Z,65.66
2023-03-26T18:53:58.439Z,66.21
2023-03-26T18:59:02.565Z,65.79
2023-03-26T19:04:07.078Z,65.88
2023-03-26T19:09:23.721Z,65.97
2023-03-26T19:14:28.040Z,65.75
2023-03-26T19:19:33.755Z,65.20
2023-03-26T19:24:37.124Z,65.57
2023-03-26T19:29:39.361Z,65.39
2023-03-26T19:34:41.224Z,65.41
2023-03-26T19:39:46.220Z,65.47
2023-03-26T19:44:48.151Z,65.68
2023-03-26T19:49:56.801Z,65.65
2023-03-26T19:55:02.888Z,65.26
2023-03-26T20:00:13.350Z,65.27
2023-03-26T20:05:26.500Z,65.31
2023-03-26T20:10:28.257Z,64.96
2023-03-26T20:15:34.255Z,64.96
2023-03-26T20:20:36.509Z,65.13
2023-03-26T20:25:46.500Z,64.96
2023-03-26T20:30:49.388Z,65.34
2023-03-26T20:35:55.474Z,64.79
2023-03-26T20:40:58.363Z,64.97
2023-03-26T20:46:00.713Z,64.67
2023-03-26T20:51:03.029Z,64.71
2023-03-26T20:56:05.066Z,64.79
2023-03-26T21:01:06.923Z,64.67
2023-03-26T21:06:15.284Z,63.88
2023-03-26T21:11:31.677Z,63.88
2023-03-26T21:16:33.966Z,63.79
2023-03-26T21:21:52.626Z,63.84
2023-03-26T21:27:14.467Z,63.30
2023-03-26T21:32:16.362Z,63.19
2023-03-26T21:37:19.190Z,62.90
2023-03-26T21:42:21.305Z,62.46
2023-03-26T21:47:23.180Z,62.31
2023-03-26T21:52:25.379Z,61.78
2023-03-26T21:57:44.454Z,60.89
2023-03-26T22:03:23.648Z,60.88
2023-03-26T22:08:38.941Z,61.38
2023-03-26T22:13:40.592Z,60.63
2023-03-26T22:18:43.795Z,61.03
2023-03-26T22:23:52.787Z,59.96
2023-03-26T22:28:54.626Z,60.66
2023-03-26T22:33:57.209Z,60.24
2023-03-26T22:38:58.897Z,60.02
2023-03-26T22:44:09.324Z,60.18
2023-03-26T22:49:20.975Z,59.70
2023-03-26T22:54:22.592Z,60.40
2023-03-26T22:59:24.311Z,59.62
2023-03-26T23:04:32.404Z,58.98
2023-03-26T23:09:34.893Z,57.85
2023-03-26T23:14:36.532Z,57.00
2023-03-26T23:19:39.246Z,56.93
2023-03-26T23:24:40.916Z,56.57
2023-03-26T23:29:42.600Z,56.70
2023-03-26T23:34:51.710Z,56.90
2023-03-26T23:39:54.067Z,55.45
2023-03-26T23:44:56.669Z,56.43
2023-03-26T23:49:58.328Z,56.46
2023-03-26T23:55:00.119Z,56.12
